sensor_id;sensor_type;location;lat;lon;timestamp;P1;durP1;ratioP1;P2;durP2;ratioP2
20000;SDS011;10161;41.188;-8.642;2022-07-29T00:00:28;2.43;;;1.53;;
20000;SDS011;10161;41.188;-8.642;2022-07-29T00:06:06;1.93;;;1.60;;
20000;SDS011;10161;41.188;-8.642;2022-07-29T00:08:33;1.70;;;1.60;;
20000;SDS011;10161;41.188;-8.642;2022-07-29T00:11:00;1.53;;;1.43;;
20000;SDS011;10161;41.188;-8.642;2022-07-29T00:13:27;3.80;;;2.23;;
20000;SDS011;10161;41.188;-8.642;2022-07-29T00:15:54;3.33;;;1.60;;
20000;SDS011;10161;41.188;-8.642;2022-07-29T00:18:21;3.93;;;1.80;;
20000;SDS011;10161;41.188;-8.642;2022-07-29T00:20:48;3.27;;;1.80;;
20000;SDS011;10161;41.188;-8.642;2022-07-29T00:23:16;1.80;;;1.70;;
20000;SDS011;10161;41.188;-8.642;2022-07-29T00:25:43;5.20;;;1.80;;
20000;SDS011;10161;41.188;-8.642;2022-07-29T00:28:10;3.80;;;2.20;;
20000;SDS011;10161;41.188;-8.642;2022-07-29T00:33:59;2.00;;;1.80;;
20000;SDS011;10161;41.188;-8.642;2022-07-29T00:36:26;2.77;;;1.90;;
20000;SDS011;10161;41.188;-8.642;2022-07-29T00:38:53;5.37;;;2.30;;
20000;SDS011;10161;41.188;-8.642;2022-07-29T00:41:20;3.87;;;2.37;;
20000;SDS011;10161;41.188;-8.642;2022-07-29T00:43:47;3.67;;;2.03;;
20000;SDS011;10161;41.188;-8.642;2022-07-29T00:46:14;2.13;;;1.93;;
20000;SDS011;10161;41.188;-8.642;2022-07-29T00:48:41;2.57;;;2.00;;
20000;SDS011;10161;41.188;-8.642;2022-07-29T00:51:08;2.10;;;1.90;;
20000;SDS011;10161;41.188;-8.642;2022-07-29T00:53:36;2.20;;;1.90;;
20000;SDS011;10161;41.188;-8.642;2022-07-29T00:56:05;2.50;;;2.30;;
20000;SDS011;10161;41.188;-8.642;2022-07-29T00:58:31;4.93;;;2.47;;
20000;SDS011;10161;41.188;-8.642;2022-07-29T01:00:59;2.83;;;2.37;;
20000;SDS011;10161;41.188;-8.642;2022-07-29T01:03:25;2.83;;;2.40;;
20000;SDS011;10161;41.188;-8.642;2022-07-29T01:05:52;3.80;;;2.43;;
20000;SDS011;10161;41.188;-8.642;2022-07-29T01:08:20;4.60;;;3.20;;
20000;SDS011;10161;41.188;-8.642;2022-07-29T01:10:47;4.67;;;3.63;;
20000;SDS011;10161;41.188;-8.642;2022-07-29T01:13:16;4.53;;;3.27;;
20000;SDS011;10161;41.188;-8.642;2022-07-29T01:15:43;4.77;;;3.27;;
20000;SDS011;10161;41.188;-8.642;2022-07-29T01:18:15;3.70;;;2.53;;
20000;SDS011;10161;41.188;-8.642;2022-07-29T01:20:49;3.33;;;3.03;;
20000;SDS011;10161;41.188;-8.642;2022-07-29T01:23:34;3.43;;;2.90;;
20000;SDS011;10161;41.188;-8.642;2022-07-29T01:26:23;4.27;;;2.90;;
20000;SDS011;10161;41.188;-8.642;2022-07-29T01:29:07;4.00;;;2.90;;
20000;SDS011;10161;41.188;-8.642;2022-07-29T01:31:41;4.90;;;3.17;;
20000;SDS011;10161;41.188;-8.642;2022-07-29T01:34:10;3.20;;;2.80;;
20000;SDS011;10161;41.188;-8.642;2022-07-29T01:36:40;3.33;;;3.03;;
20000;SDS011;10161;41.188;-8.642;2022-07-29T01:39:10;4.93;;;3.10;;
20000;SDS011;10161;41.188;-8.642;2022-07-29T01:41:43;3.30;;;3.00;;
20000;SDS011;10161;41.188;-8.642;2022-07-29T01:44:18;3.93;;;3.47;;
20000;SDS011;10161;41.188;-8.642;2022-07-29T01:46:49;3.53;;;3.20;;
20000;SDS011;10161;41.188;-8.642;2022-07-29T01:49:20;3.37;;;3.07;;
20000;SDS011;10161;41.188;-8.642;2022-07-29T01:51:51;5.73;;;4.37;;
20000;SDS011;10161;41.188;-8.642;2022-07-29T01:54:24;4.57;;;4.17;;
20000;SDS011;10161;41.188;-8.642;2022-07-29T01:56:53;3.80;;;3.47;;
20000;SDS011;10161;41.188;-8.642;2022-07-29T01:59:23;4.23;;;3.77;;
20000;SDS011;10161;41.188;-8.642;2022-07-29T02:04:45;5.67;;;3.10;;
20000;SDS011;10161;41.188;-8.642;2022-07-29T02:07:15;3.80;;;3.50;;
20000;SDS011;10161;41.188;-8.642;2022-07-29T02:12:40;3.40;;;3.10;;
20000;SDS011;10161;41.188;-8.642;2022-07-29T02:15:10;4.20;;;3.80;;
20000;SDS011;10161;41.188;-8.642;2022-07-29T02:17:39;4.30;;;3.60;;
20000;SDS011;10161;41.188;-8.642;2022-07-29T02:20:09;4.37;;;3.30;;
20000;SDS011;10161;41.188;-8.642;2022-07-29T02:22:37;4.40;;;3.43;;
20000;SDS011;10161;41.188;-8.642;2022-07-29T02:25:05;4.03;;;3.37;;
20000;SDS011;10161;41.188;-8.642;2022-07-29T02:27:33;5.77;;;3.63;;
20000;SDS011;10161;41.188;-8.642;2022-07-29T02:32:41;5.23;;;3.90;;
20000;SDS011;10161;41.188;-8.642;2022-07-29T02:35:08;4.20;;;3.70;;
20000;SDS011;10161;41.188;-8.642;2022-07-29T02:37:36;4.40;;;4.00;;
20000;SDS011;10161;41.188;-8.642;2022-07-29T02:40:04;4.87;;;4.00;;
20000;SDS011;10161;41.188;-8.642;2022-07-29T02:42:34;5.60;;;4.27;;
20000;SDS011;10161;41.188;-8.642;2022-07-29T02:47:52;4.97;;;4.43;;
20000;SDS011;10161;41.188;-8.642;2022-07-29T02:50:24;5.70;;;5.10;;
20000;SDS011;10161;41.188;-8.642;2022-07-29T02:52:57;7.03;;;5.87;;
20000;SDS011;10161;41.188;-8.642;2022-07-29T02:55:26;8.63;;;5.57;;
20000;SDS011;10161;41.188;-8.642;2022-07-29T02:57:58;6.90;;;5.40;;
20000;SDS011;10161;41.188;-8.642;2022-07-29T03:00:29;6.20;;;5.53;;
20000;SDS011;10161;41.188;-8.642;2022-07-29T03:02:58;7.40;;;5.67;;
20000;SDS011;10161;41.188;-8.642;2022-07-29T03:05:26;5.13;;;4.63;;
20000;SDS011;10161;41.188;-8.642;2022-07-29T03:07:55;5.80;;;5.20;;
20000;SDS011;10161;41.188;-8.642;2022-07-29T03:10:24;7.10;;;5.00;;
20000;SDS011;10161;41.188;-8.642;2022-07-29T03:12:52;5.27;;;4.47;;
20000;SDS011;10161;41.188;-8.642;2022-07-29T03:15:19;6.20;;;4.50;;
20000;SDS011;10161;41.188;-8.642;2022-07-29T03:17:48;5.20;;;4.23;;
20000;SDS011;10161;41.188;-8.642;2022-07-29T03:23:01;4.37;;;3.77;;
20000;SDS011;10161;41.188;-8.642;2022-07-29T03:25:28;4.67;;;3.60;;
20000;SDS011;10161;41.188;-8.642;2022-07-29T03:27:55;5.23;;;4.00;;
20000;SDS011;10161;41.188;-8.642;2022-07-29T03:30:22;4.23;;;3.47;;
20000;SDS011;10161;41.188;-8.642;2022-07-29T03:32:52;3.50;;;3.20;;
20000;SDS011;10161;41.188;-8.642;2022-07-29T03:35:19;3.93;;;3.27;;
20000;SDS011;10161;41.188;-8.642;2022-07-29T03:37:46;4.33;;;3.60;;
20000;SDS011;10161;41.188;-8.642;2022-07-29T03:40:14;4.63;;;3.30;;
20000;SDS011;10161;41.188;-8.642;2022-07-29T03:42:43;4.00;;;3.60;;
20000;SDS011;10161;41.188;-8.642;2022-07-29T03:45:12;3.60;;;3.00;;
20000;SDS011;10161;41.188;-8.642;2022-07-29T03:51:10;3.60;;;3.30;;
20000;SDS011;10161;41.188;-8.642;2022-07-29T03:53:37;5.47;;;3.60;;
20000;SDS011;10161;41.188;-8.642;2022-07-29T03:56:04;4.03;;;3.30;;
20000;SDS011;10161;41.188;-8.642;2022-07-29T03:58:33;3.87;;;3.47;;
20000;SDS011;10161;41.188;-8.642;2022-07-29T04:01:01;5.93;;;3.73;;
20000;SDS011;10161;41.188;-8.642;2022-07-29T04:03:28;4.10;;;3.70;;
20000;SDS011;10161;41.188;-8.642;2022-07-29T04:08:43;4.53;;;4.03;;
20000;SDS011;10161;41.188;-8.642;2022-07-29T04:11:10;4.93;;;4.10;;
20000;SDS011;10161;41.188;-8.642;2022-07-29T04:13:37;4.33;;;4.03;;
20000;SDS011;10161;41.188;-8.642;2022-07-29T04:19:08;4.50;;;4.10;;
20000;SDS011;10161;41.188;-8.642;2022-07-29T04:21:38;4.20;;;3.83;;
20000;SDS011;10161;41.188;-8.642;2022-07-29T04:24:05;4.13;;;3.80;;
20000;SDS011;10161;41.188;-8.642;2022-07-29T04:26:32;4.37;;;3.97;;
20000;SDS011;10161;41.188;-8.642;2022-07-29T04:29:00;6.73;;;4.43;;
20000;SDS011;10161;41.188;-8.642;2022-07-29T04:31:27;8.60;;;4.47;;
20000;SDS011;10161;41.188;-8.642;2022-07-29T04:33:54;4.70;;;4.30;;
20000;SDS011;10161;41.188;-8.642;2022-07-29T04:36:20;4.77;;;4.37;;
20000;SDS011;10161;41.188;-8.642;2022-07-29T04:38:49;4.93;;;4.50;;
20000;SDS011;10161;41.188;-8.642;2022-07-29T04:41:16;6.03;;;5.43;;
20000;SDS011;10161;41.188;-8.642;2022-07-29T04:43:43;6.13;;;5.23;;
20000;SDS011;10161;41.188;-8.642;2022-07-29T04:46:10;5.70;;;5.10;;
20000;SDS011;10161;41.188;-8.642;2022-07-29T04:48:36;5.57;;;5.17;;
20000;SDS011;10161;41.188;-8.642;2022-07-29T04:51:03;5.77;;;4.70;;
20000;SDS011;10161;41.188;-8.642;2022-07-29T04:53:30;5.20;;;4.70;;
20000;SDS011;10161;41.188;-8.642;2022-07-29T04:55:59;6.00;;;5.40;;
20000;SDS011;10161;41.188;-8.642;2022-07-29T04:58:26;6.80;;;5.20;;
20000;SDS011;10161;41.188;-8.642;2022-07-29T05:00:52;5.60;;;5.10;;
20000;SDS011;10161;41.188;-8.642;2022-07-29T05:03:19;5.90;;;5.30;;
20000;SDS011;10161;41.188;-8.642;2022-07-29T05:05:46;6.10;;;5.10;;
20000;SDS011;10161;41.188;-8.642;2022-07-29T05:08:13;6.13;;;5.60;;
20000;SDS011;10161;41.188;-8.642;2022-07-29T05:10:40;6.70;;;5.73;;
20000;SDS011;10161;41.188;-8.642;2022-07-29T05:13:09;6.50;;;5.90;;
20000;SDS011;10161;41.188;-8.642;2022-07-29T05:15:37;6.33;;;5.73;;
20000;SDS011;10161;41.188;-8.642;2022-07-29T05:18:04;6.90;;;6.20;;
20000;SDS011;10161;41.188;-8.642;2022-07-29T05:20:32;5.80;;;5.20;;
20000;SDS011;10161;41.188;-8.642;2022-07-29T05:22:59;7.30;;;6.27;;
20000;SDS011;10161;41.188;-8.642;2022-07-29T05:25:28;6.50;;;5.60;;
20000;SDS011;10161;41.188;-8.642;2022-07-29T05:27:56;6.40;;;5.90;;
20000;SDS011;10161;41.188;-8.642;2022-07-29T05:30:24;5.90;;;5.30;;
20000;SDS011;10161;41.188;-8.642;2022-07-29T05:36:13;6.50;;;5.63;;
20000;SDS011;10161;41.188;-8.642;2022-07-29T05:38:40;5.60;;;5.10;;
20000;SDS011;10161;41.188;-8.642;2022-07-29T05:41:07;6.23;;;5.63;;
20000;SDS011;10161;41.188;-8.642;2022-07-29T05:43:34;6.17;;;5.57;;
20000;SDS011;10161;41.188;-8.642;2022-07-29T05:46:02;6.50;;;5.73;;
20000;SDS011;10161;41.188;-8.642;2022-07-29T05:48:29;7.70;;;5.90;;
20000;SDS011;10161;41.188;-8.642;2022-07-29T05:50:58;6.07;;;5.47;;
20000;SDS011;10161;41.188;-8.642;2022-07-29T05:53:25;7.13;;;5.60;;
20000;SDS011;10161;41.188;-8.642;2022-07-29T05:55:51;5.80;;;5.20;;
20000;SDS011;10161;41.188;-8.642;2022-07-29T05:58:18;6.97;;;5.77;;
20000;SDS011;10161;41.188;-8.642;2022-07-29T06:00:46;6.67;;;6.00;;
20000;SDS011;10161;41.188;-8.642;2022-07-29T06:03:14;6.10;;;5.60;;
20000;SDS011;10161;41.188;-8.642;2022-07-29T06:05:41;6.00;;;5.50;;
20000;SDS011;10161;41.188;-8.642;2022-07-29T06:08:08;6.63;;;6.00;;
20000;SDS011;10161;41.188;-8.642;2022-07-29T06:10:35;6.17;;;5.60;;
20000;SDS011;10161;41.188;-8.642;2022-07-29T06:13:02;6.57;;;4.70;;
20000;SDS011;10161;41.188;-8.642;2022-07-29T06:15:29;5.23;;;4.83;;
20000;SDS011;10161;41.188;-8.642;2022-07-29T06:21:20;6.20;;;4.63;;
20000;SDS011;10161;41.188;-8.642;2022-07-29T06:23:47;5.20;;;4.80;;
20000;SDS011;10161;41.188;-8.642;2022-07-29T06:26:13;6.27;;;5.03;;
20000;SDS011;10161;41.188;-8.642;2022-07-29T06:28:41;7.97;;;5.60;;
20000;SDS011;10161;41.188;-8.642;2022-07-29T06:31:08;7.43;;;5.70;;
20000;SDS011;10161;41.188;-8.642;2022-07-29T06:33:35;7.10;;;5.90;;
20000;SDS011;10161;41.188;-8.642;2022-07-29T06:36:03;7.10;;;6.13;;
20000;SDS011;10161;41.188;-8.642;2022-07-29T06:38:32;7.13;;;6.53;;
20000;SDS011;10161;41.188;-8.642;2022-07-29T06:40:59;7.20;;;6.40;;
20000;SDS011;10161;41.188;-8.642;2022-07-29T06:43:26;6.43;;;5.83;;
20000;SDS011;10161;41.188;-8.642;2022-07-29T06:45:56;6.77;;;6.17;;
20000;SDS011;10161;41.188;-8.642;2022-07-29T06:48:24;7.60;;;6.90;;
20000;SDS011;10161;41.188;-8.642;2022-07-29T06:50:51;7.40;;;6.70;;
20000;SDS011;10161;41.188;-8.642;2022-07-29T06:53:18;7.27;;;6.53;;
20000;SDS011;10161;41.188;-8.642;2022-07-29T06:55:47;7.67;;;6.97;;
20000;SDS011;10161;41.188;-8.642;2022-07-29T06:58:14;9.37;;;8.10;;
20000;SDS011;10161;41.188;-8.642;2022-07-29T07:00:43;11.23;;;8.40;;
20000;SDS011;10161;41.188;-8.642;2022-07-29T07:03:10;8.97;;;7.90;;
20000;SDS011;10161;41.188;-8.642;2022-07-29T07:05:37;8.40;;;7.60;;
20000;SDS011;10161;41.188;-8.642;2022-07-29T07:08:04;9.17;;;8.37;;
20000;SDS011;10161;41.188;-8.642;2022-07-29T07:10:32;9.50;;;8.50;;
20000;SDS011;10161;41.188;-8.642;2022-07-29T07:13:00;9.07;;;7.80;;
20000;SDS011;10161;41.188;-8.642;2022-07-29T07:15:28;7.80;;;6.80;;
20000;SDS011;10161;41.188;-8.642;2022-07-29T07:17:55;7.20;;;6.60;;
20000;SDS011;10161;41.188;-8.642;2022-07-29T07:23:09;8.07;;;7.07;;
20000;SDS011;10161;41.188;-8.642;2022-07-29T07:28:52;10.17;;;6.90;;
20000;SDS011;10161;41.188;-8.642;2022-07-29T07:31:19;6.80;;;6.10;;
20000;SDS011;10161;41.188;-8.642;2022-07-29T07:33:49;7.90;;;6.37;;
20000;SDS011;10161;41.188;-8.642;2022-07-29T07:36:16;7.60;;;6.73;;
20000;SDS011;10161;41.188;-8.642;2022-07-29T07:38:43;16.50;;;7.17;;
20000;SDS011;10161;41.188;-8.642;2022-07-29T07:41:10;8.87;;;7.27;;
20000;SDS011;10161;41.188;-8.642;2022-07-29T07:43:37;10.50;;;6.93;;
20000;SDS011;10161;41.188;-8.642;2022-07-29T07:46:05;6.67;;;5.90;;
20000;SDS011;10161;41.188;-8.642;2022-07-29T07:48:32;5.60;;;5.10;;
20000;SDS011;10161;41.188;-8.642;2022-07-29T07:50:59;7.70;;;5.40;;
20000;SDS011;10161;41.188;-8.642;2022-07-29T07:53:26;8.13;;;5.10;;
20000;SDS011;10161;41.188;-8.642;2022-07-29T07:55:54;5.33;;;4.93;;
20000;SDS011;10161;41.188;-8.642;2022-07-29T07:58:21;6.77;;;4.50;;
20000;SDS011;10161;41.188;-8.642;2022-07-29T08:00:48;5.33;;;4.10;;
20000;SDS011;10161;41.188;-8.642;2022-07-29T08:03:17;5.00;;;4.50;;
20000;SDS011;10161;41.188;-8.642;2022-07-29T08:05:44;4.80;;;4.40;;
20000;SDS011;10161;41.188;-8.642;2022-07-29T08:08:11;5.13;;;4.53;;
20000;SDS011;10161;41.188;-8.642;2022-07-29T08:10:38;4.70;;;4.20;;
20000;SDS011;10161;41.188;-8.642;2022-07-29T08:13:22;4.60;;;4.20;;
20000;SDS011;10161;41.188;-8.642;2022-07-29T08:15:50;6.30;;;4.83;;
20000;SDS011;10161;41.188;-8.642;2022-07-29T08:18:24;9.13;;;4.83;;
20000;SDS011;10161;41.188;-8.642;2022-07-29T08:20:50;6.10;;;4.57;;
20000;SDS011;10161;41.188;-8.642;2022-07-29T08:26:00;6.70;;;4.97;;
20000;SDS011;10161;41.188;-8.642;2022-07-29T08:28:26;7.17;;;6.13;;
20000;SDS011;10161;41.188;-8.642;2022-07-29T08:30:53;11.47;;;8.77;;
20000;SDS011;10161;41.188;-8.642;2022-07-29T08:33:20;9.37;;;7.50;;
20000;SDS011;10161;41.188;-8.642;2022-07-29T08:35:49;9.77;;;8.07;;
20000;SDS011;10161;41.188;-8.642;2022-07-29T08:38:16;7.80;;;7.00;;
20000;SDS011;10161;41.188;-8.642;2022-07-29T08:40:43;10.00;;;6.23;;
20000;SDS011;10161;41.188;-8.642;2022-07-29T08:43:10;8.00;;;6.73;;
20000;SDS011;10161;41.188;-8.642;2022-07-29T08:45:40;6.17;;;5.40;;
20000;SDS011;10161;41.188;-8.642;2022-07-29T08:48:09;7.17;;;5.53;;
20000;SDS011;10161;41.188;-8.642;2022-07-29T08:50:37;8.60;;;6.63;;
20000;SDS011;10161;41.188;-8.642;2022-07-29T08:53:06;7.23;;;6.40;;
20000;SDS011;10161;41.188;-8.642;2022-07-29T08:55:34;5.70;;;5.20;;
20000;SDS011;10161;41.188;-8.642;2022-07-29T08:58:16;6.97;;;5.17;;
20000;SDS011;10161;41.188;-8.642;2022-07-29T09:00:44;16.23;;;9.60;;
20000;SDS011;10161;41.188;-8.642;2022-07-29T09:03:12;16.63;;;11.63;;
20000;SDS011;10161;41.188;-8.642;2022-07-29T09:05:41;15.93;;;11.53;;
20000;SDS011;10161;41.188;-8.642;2022-07-29T09:08:10;12.63;;;9.40;;
20000;SDS011;10161;41.188;-8.642;2022-07-29T09:10:37;12.80;;;8.70;;
20000;SDS011;10161;41.188;-8.642;2022-07-29T09:13:04;9.30;;;7.67;;
20000;SDS011;10161;41.188;-8.642;2022-07-29T09:15:31;8.47;;;6.50;;
20000;SDS011;10161;41.188;-8.642;2022-07-29T09:17:59;6.57;;;5.77;;
20000;SDS011;10161;41.188;-8.642;2022-07-29T09:20:27;5.60;;;5.00;;
20000;SDS011;10161;41.188;-8.642;2022-07-29T09:23:16;13.97;;;7.70;;
20000;SDS011;10161;41.188;-8.642;2022-07-29T09:25:45;9.37;;;7.10;;
20000;SDS011;10161;41.188;-8.642;2022-07-29T09:28:13;10.30;;;6.30;;
20000;SDS011;10161;41.188;-8.642;2022-07-29T09:30:49;7.90;;;5.60;;
20000;SDS011;10161;41.188;-8.642;2022-07-29T09:33:17;7.50;;;6.03;;
20000;SDS011;10161;41.188;-8.642;2022-07-29T09:35:44;8.50;;;5.30;;
20000;SDS011;10161;41.188;-8.642;2022-07-29T09:38:11;12.57;;;6.50;;
20000;SDS011;10161;41.188;-8.642;2022-07-29T09:40:40;8.70;;;6.90;;
20000;SDS011;10161;41.188;-8.642;2022-07-29T09:43:10;9.90;;;5.93;;
20000;SDS011;10161;41.188;-8.642;2022-07-29T09:45:38;10.93;;;6.43;;
20000;SDS011;10161;41.188;-8.642;2022-07-29T09:48:12;8.83;;;5.37;;
20000;SDS011;10161;41.188;-8.642;2022-07-29T09:50:41;6.13;;;5.03;;
20000;SDS011;10161;41.188;-8.642;2022-07-29T09:53:10;5.20;;;4.30;;
20000;SDS011;10161;41.188;-8.642;2022-07-29T09:55:48;8.90;;;6.10;;
20000;SDS011;10161;41.188;-8.642;2022-07-29T09:58:15;7.90;;;5.13;;
20000;SDS011;10161;41.188;-8.642;2022-07-29T10:00:43;5.57;;;4.70;;
20000;SDS011;10161;41.188;-8.642;2022-07-29T10:03:11;5.70;;;5.20;;
20000;SDS011;10161;41.188;-8.642;2022-07-29T10:05:38;8.03;;;5.20;;
20000;SDS011;10161;41.188;-8.642;2022-07-29T10:08:07;7.63;;;5.20;;
20000;SDS011;10161;41.188;-8.642;2022-07-29T10:10:35;8.70;;;4.97;;
20000;SDS011;10161;41.188;-8.642;2022-07-29T10:13:05;7.30;;;4.77;;
20000;SDS011;10161;41.188;-8.642;2022-07-29T10:15:33;10.23;;;4.83;;
20000;SDS011;10161;41.188;-8.642;2022-07-29T10:18:02;7.00;;;4.87;;
20000;SDS011;10161;41.188;-8.642;2022-07-29T10:20:30;6.53;;;5.10;;
20000;SDS011;10161;41.188;-8.642;2022-07-29T10:22:57;9.43;;;5.00;;
20000;SDS011;10161;41.188;-8.642;2022-07-29T10:25:24;6.40;;;4.20;;
20000;SDS011;10161;41.188;-8.642;2022-07-29T10:27:51;6.63;;;4.37;;
20000;SDS011;10161;41.188;-8.642;2022-07-29T10:30:21;8.47;;;5.00;;
20000;SDS011;10161;41.188;-8.642;2022-07-29T10:36:01;5.40;;;4.50;;
20000;SDS011;10161;41.188;-8.642;2022-07-29T10:38:41;5.00;;;4.00;;
20000;SDS011;10161;41.188;-8.642;2022-07-29T10:41:12;6.70;;;4.57;;
20000;SDS011;10161;41.188;-8.642;2022-07-29T10:44:09;6.60;;;4.67;;
20000;SDS011;10161;41.188;-8.642;2022-07-29T10:46:41;7.23;;;5.20;;
20000;SDS011;10161;41.188;-8.642;2022-07-29T10:49:09;8.00;;;4.83;;
20000;SDS011;10161;41.188;-8.642;2022-07-29T10:54:41;4.70;;;4.17;;
20000;SDS011;10161;41.188;-8.642;2022-07-29T10:57:11;4.40;;;3.90;;
20000;SDS011;10161;41.188;-8.642;2022-07-29T10:59:47;5.30;;;4.10;;
20000;SDS011;10161;41.188;-8.642;2022-07-29T11:05:09;5.33;;;3.90;;
20000;SDS011;10161;41.188;-8.642;2022-07-29T11:10:51;9.90;;;4.40;;
20000;SDS011;10161;41.188;-8.642;2022-07-29T11:16:13;6.13;;;3.93;;
20000;SDS011;10161;41.188;-8.642;2022-07-29T11:21:47;12.93;;;4.83;;
20000;SDS011;10161;41.188;-8.642;2022-07-29T11:24:15;8.63;;;3.90;;
20000;SDS011;10161;41.188;-8.642;2022-07-29T11:26:44;5.00;;;4.37;;
20000;SDS011;10161;41.188;-8.642;2022-07-29T11:29:16;6.37;;;3.93;;
20000;SDS011;10161;41.188;-8.642;2022-07-29T11:31:48;8.77;;;4.37;;
20000;SDS011;10161;41.188;-8.642;2022-07-29T11:34:17;6.13;;;4.17;;
20000;SDS011;10161;41.188;-8.642;2022-07-29T11:39:46;7.23;;;4.77;;
20000;SDS011;10161;41.188;-8.642;2022-07-29T11:45:06;7.43;;;4.20;;
20000;SDS011;10161;41.188;-8.642;2022-07-29T11:47:39;7.40;;;4.80;;
20000;SDS011;10161;41.188;-8.642;2022-07-29T11:50:08;4.20;;;3.80;;
20000;SDS011;10161;41.188;-8.642;2022-07-29T11:52:36;5.10;;;4.60;;
20000;SDS011;10161;41.188;-8.642;2022-07-29T11:55:10;10.37;;;4.13;;
20000;SDS011;10161;41.188;-8.642;2022-07-29T11:57:45;9.53;;;4.13;;
20000;SDS011;10161;41.188;-8.642;2022-07-29T12:00:16;4.57;;;4.17;;
20000;SDS011;10161;41.188;-8.642;2022-07-29T12:02:47;5.63;;;3.93;;
20000;SDS011;10161;41.188;-8.642;2022-07-29T12:05:14;8.00;;;4.13;;
20000;SDS011;10161;41.188;-8.642;2022-07-29T12:07:41;4.90;;;3.60;;
20000;SDS011;10161;41.188;-8.642;2022-07-29T12:10:10;6.73;;;4.70;;
20000;SDS011;10161;41.188;-8.642;2022-07-29T12:12:37;6.80;;;4.93;;
20000;SDS011;10161;41.188;-8.642;2022-07-29T12:15:14;6.20;;;4.30;;
20000;SDS011;10161;41.188;-8.642;2022-07-29T12:17:45;7.10;;;4.10;;
20000;SDS011;10161;41.188;-8.642;2022-07-29T12:20:12;5.20;;;4.20;;
20000;SDS011;10161;41.188;-8.642;2022-07-29T12:22:42;4.13;;;3.73;;
20000;SDS011;10161;41.188;-8.642;2022-07-29T12:25:11;5.63;;;3.70;;
20000;SDS011;10161;41.188;-8.642;2022-07-29T12:27:40;6.20;;;4.20;;
20000;SDS011;10161;41.188;-8.642;2022-07-29T12:30:09;4.30;;;3.90;;
20000;SDS011;10161;41.188;-8.642;2022-07-29T12:32:38;6.63;;;4.30;;
20000;SDS011;10161;41.188;-8.642;2022-07-29T12:35:06;8.90;;;4.17;;
20000;SDS011;10161;41.188;-8.642;2022-07-29T12:37:34;4.00;;;3.60;;
20000;SDS011;10161;41.188;-8.642;2022-07-29T12:40:03;6.17;;;4.53;;
20000;SDS011;10161;41.188;-8.642;2022-07-29T12:42:32;6.50;;;4.57;;
20000;SDS011;10161;41.188;-8.642;2022-07-29T12:44:59;4.27;;;3.87;;
20000;SDS011;10161;41.188;-8.642;2022-07-29T12:47:27;5.10;;;4.10;;
20000;SDS011;10161;41.188;-8.642;2022-07-29T12:50:07;5.30;;;4.80;;
20000;SDS011;10161;41.188;-8.642;2022-07-29T12:52:35;5.17;;;4.30;;
20000;SDS011;10161;41.188;-8.642;2022-07-29T12:55:03;6.17;;;4.13;;
20000;SDS011;10161;41.188;-8.642;2022-07-29T12:57:32;9.00;;;5.07;;
20000;SDS011;10161;41.188;-8.642;2022-07-29T13:00:09;10.00;;;4.43;;
20000;SDS011;10161;41.188;-8.642;2022-07-29T13:02:39;6.57;;;4.47;;
20000;SDS011;10161;41.188;-8.642;2022-07-29T13:05:07;6.50;;;4.37;;
20000;SDS011;10161;41.188;-8.642;2022-07-29T13:07:35;10.20;;;4.27;;
20000;SDS011;10161;41.188;-8.642;2022-07-29T13:10:09;7.30;;;4.10;;
20000;SDS011;10161;41.188;-8.642;2022-07-29T13:12:39;4.67;;;3.70;;
20000;SDS011;10161;41.188;-8.642;2022-07-29T13:15:13;4.90;;;4.20;;
20000;SDS011;10161;41.188;-8.642;2022-07-29T13:17:41;6.17;;;4.40;;
20000;SDS011;10161;41.188;-8.642;2022-07-29T13:20:09;5.50;;;3.93;;
20000;SDS011;10161;41.188;-8.642;2022-07-29T13:22:39;4.77;;;4.17;;
20000;SDS011;10161;41.188;-8.642;2022-07-29T13:25:07;10.23;;;4.27;;
20000;SDS011;10161;41.188;-8.642;2022-07-29T13:27:35;4.10;;;3.70;;
20000;SDS011;10161;41.188;-8.642;2022-07-29T13:30:06;4.90;;;4.03;;
20000;SDS011;10161;41.188;-8.642;2022-07-29T13:32:34;5.93;;;3.50;;
20000;SDS011;10161;41.188;-8.642;2022-07-29T13:35:03;5.40;;;3.83;;
20000;SDS011;10161;41.188;-8.642;2022-07-29T13:37:32;5.63;;;4.00;;
20000;SDS011;10161;41.188;-8.642;2022-07-29T13:40:00;3.70;;;3.27;;
20000;SDS011;10161;41.188;-8.642;2022-07-29T13:42:28;4.40;;;3.80;;
20000;SDS011;10161;41.188;-8.642;2022-07-29T13:44:55;9.83;;;3.70;;
20000;SDS011;10161;41.188;-8.642;2022-07-29T13:47:23;4.60;;;3.67;;
20000;SDS011;10161;41.188;-8.642;2022-07-29T13:49:50;5.77;;;3.70;;
20000;SDS011;10161;41.188;-8.642;2022-07-29T13:52:18;8.17;;;3.70;;
20000;SDS011;10161;41.188;-8.642;2022-07-29T13:54:45;7.60;;;3.50;;
20000;SDS011;10161;41.188;-8.642;2022-07-29T13:57:12;5.60;;;3.53;;
20000;SDS011;10161;41.188;-8.642;2022-07-29T13:59:40;6.83;;;3.83;;
20000;SDS011;10161;41.188;-8.642;2022-07-29T14:02:08;3.60;;;3.30;;
20000;SDS011;10161;41.188;-8.642;2022-07-29T14:04:38;10.90;;;3.70;;
20000;SDS011;10161;41.188;-8.642;2022-07-29T14:07:05;6.93;;;4.20;;
20000;SDS011;10161;41.188;-8.642;2022-07-29T14:09:33;5.10;;;4.07;;
20000;SDS011;10161;41.188;-8.642;2022-07-29T14:12:00;4.00;;;3.67;;
20000;SDS011;10161;41.188;-8.642;2022-07-29T14:14:27;5.83;;;3.40;;
20000;SDS011;10161;41.188;-8.642;2022-07-29T14:16:55;4.27;;;3.40;;
20000;SDS011;10161;41.188;-8.642;2022-07-29T14:19:22;4.37;;;3.97;;
20000;SDS011;10161;41.188;-8.642;2022-07-29T14:21:50;4.40;;;3.70;;
20000;SDS011;10161;41.188;-8.642;2022-07-29T14:24:17;5.50;;;3.90;;
20000;SDS011;10161;41.188;-8.642;2022-07-29T14:26:44;4.50;;;3.80;;
20000;SDS011;10161;41.188;-8.642;2022-07-29T14:29:11;4.80;;;3.40;;
20000;SDS011;10161;41.188;-8.642;2022-07-29T14:31:38;6.17;;;4.50;;
20000;SDS011;10161;41.188;-8.642;2022-07-29T14:34:05;6.40;;;4.23;;
20000;SDS011;10161;41.188;-8.642;2022-07-29T14:36:32;6.10;;;4.50;;
20000;SDS011;10161;41.188;-8.642;2022-07-29T14:39:01;6.07;;;4.30;;
20000;SDS011;10161;41.188;-8.642;2022-07-29T14:41:29;6.50;;;4.53;;
20000;SDS011;10161;41.188;-8.642;2022-07-29T14:43:55;5.67;;;4.83;;
20000;SDS011;10161;41.188;-8.642;2022-07-29T14:46:25;10.67;;;4.60;;
20000;SDS011;10161;41.188;-8.642;2022-07-29T14:48:52;6.90;;;4.27;;
20000;SDS011;10161;41.188;-8.642;2022-07-29T14:51:19;10.93;;;4.40;;
20000;SDS011;10161;41.188;-8.642;2022-07-29T14:53:46;5.50;;;4.90;;
20000;SDS011;10161;41.188;-8.642;2022-07-29T14:56:15;6.97;;;4.97;;
20000;SDS011;10161;41.188;-8.642;2022-07-29T14:58:42;7.23;;;4.70;;
20000;SDS011;10161;41.188;-8.642;2022-07-29T15:01:09;4.80;;;4.40;;
20000;SDS011;10161;41.188;-8.642;2022-07-29T15:03:35;5.43;;;4.70;;
20000;SDS011;10161;41.188;-8.642;2022-07-29T15:06:02;6.13;;;4.60;;
20000;SDS011;10161;41.188;-8.642;2022-07-29T15:08:30;5.07;;;4.57;;
20000;SDS011;10161;41.188;-8.642;2022-07-29T15:10:57;8.87;;;4.50;;
20000;SDS011;10161;41.188;-8.642;2022-07-29T15:13:27;8.87;;;4.70;;
20000;SDS011;10161;41.188;-8.642;2022-07-29T15:15:54;5.70;;;4.60;;
20000;SDS011;10161;41.188;-8.642;2022-07-29T15:18:21;6.50;;;4.50;;
20000;SDS011;10161;41.188;-8.642;2022-07-29T15:20:52;10.93;;;4.77;;
20000;SDS011;10161;41.188;-8.642;2022-07-29T15:23:19;4.90;;;3.97;;
20000;SDS011;10161;41.188;-8.642;2022-07-29T15:25:46;4.43;;;3.63;;
20000;SDS011;10161;41.188;-8.642;2022-07-29T15:28:13;8.07;;;4.40;;
20000;SDS011;10161;41.188;-8.642;2022-07-29T15:30:41;8.33;;;4.20;;
20000;SDS011;10161;41.188;-8.642;2022-07-29T15:33:08;5.80;;;4.57;;
20000;SDS011;10161;41.188;-8.642;2022-07-29T15:35:35;9.93;;;4.60;;
20000;SDS011;10161;41.188;-8.642;2022-07-29T15:38:05;8.50;;;4.50;;
20000;SDS011;10161;41.188;-8.642;2022-07-29T15:40:31;14.33;;;4.20;;
20000;SDS011;10161;41.188;-8.642;2022-07-29T15:42:58;8.00;;;4.30;;
20000;SDS011;10161;41.188;-8.642;2022-07-29T15:45:34;5.63;;;3.87;;
20000;SDS011;10161;41.188;-8.642;2022-07-29T15:48:03;8.70;;;4.40;;
20000;SDS011;10161;41.188;-8.642;2022-07-29T15:50:30;6.27;;;4.43;;